Time;durP1;ratioP1;P1;durP2;ratioP2;P2;SDS_P1;SDS_P2;PMS_P1;PMS_P2;Temp;Humidity;BMP_temperature;BMP_pressure;BME280_temperature;BME280_humidity;BME280_pressure;Samples;Min_cycle;Max_cycle;Signal;HPM_P1;HPM_P2
2023/02/27 00:02:14;;;;;;;;;;;;;;;17.02;52.72;98892.38;5091845;28;19957;-36
2023/02/27 00:04:39;;;;;;;;;;;;;;;17.27;51.90;98903.19;5092029;28;19919;-36
2023/02/27 00:07:06;;;;;;;;;;;;;;;17.54;51.63;98908.28;5091993;28;19912;-36
2023/02/27 00:09:31;;;;;;;;;;;;;;;17.61;50.74;98904.50;5091863;28;19912;-36
2023/02/27 00:11:56;;;;;;;;;;;;;;;17.35;51.97;98899.16;5092236;28;20294;-36
2023/02/27 00:14:21;;;;;;;;;;;;;;;16.94;52.94;98907.13;5092010;28;20103;-37
2023/02/27 00:16:47;;;;;;;;;;;;;;;16.77;53.31;98897.41;5091783;28;19912;-36
2023/02/27 00:19:12;;;;;;;;;;;;;;;16.78;53.43;98885.59;5092099;28;19923;-37
2023/02/27 00:21:37;;;;;;;;;;;;;;;17.02;52.60;98878.94;5091466;28;20010;-36
2023/02/27 00:24:03;;;;;;;;;;;;;;;17.18;51.96;98870.63;5091704;28;19920;-36
2023/02/27 00:26:28;;;;;;;;;;;;;;;16.73;53.16;98849.84;5091502;28;19912;-36
2023/02/27 00:28:53;;;;;;;;;;;;;;;16.90;52.89;98871.13;5091629;28;19912;-36
2023/02/27 00:31:19;;;;;;;;;;;;;;;16.82;52.97;98875.16;5091013;28;19919;-36
2023/02/27 00:33:44;;;;;;;;;;;;;;;16.63;54.21;98896.28;5091033;28;19913;-36
2023/02/27 00:36:09;;;;;;;;;;;;;;;16.05;55.23;98903.53;5090925;28;19919;-37
2023/02/27 00:38:34;;;;;;;;;;;;;;;15.85;56.60;98893.50;5091131;28;20345;-36
2023/02/27 00:41:00;;;;;;;;;;;;;;;16.56;54.32;98868.84;5091371;28;19919;-36
2023/02/27 00:43:25;;;;;;;;;;;;;;;16.44;54.33;98876.34;5090990;28;19955;-36
2023/02/27 00:45:50;;;;;;;;;;;;;;;15.28;57.77;98886.88;5090457;28;19912;-37
2023/02/27 00:48:16;;;;;;;;;;;;;;;15.74;57.18;98897.97;5090308;28;19919;-36
2023/02/27 00:50:41;;;;;;;;;;;;;;;15.96;55.80;98916.63;5090930;28;19912;-37
2023/02/27 00:53:07;;;;;;;;;;;;;;;16.11;55.45;98895.25;5090781;28;19996;-37
2023/02/27 00:55:32;;;;;;;;;;;;;;;15.73;56.99;98915.94;5090817;28;19916;-37
2023/02/27 00:57:57;;;;;;;;;;;;;;;15.86;56.83;98919.25;5091261;28;20367;-37
2023/02/27 01:00:23;;;;;;;;;;;;;;;15.76;56.43;98915.44;5090931;28;19947;-38
2023/02/27 01:02:48;;;;;;;;;;;;;;;15.89;55.91;98910.69;5091101;28;19947;-37
2023/02/27 01:05:14;;;;;;;;;;;;;;;16.10;55.23;98908.94;5090801;28;20398;-37
2023/02/27 01:07:39;;;;;;;;;;;;;;;16.39;54.90;98898.59;5091100;28;20039;-37
2023/02/27 01:10:05;;;;;;;;;;;;;;;16.63;54.24;98909.72;5091242;28;19912;-37
2023/02/27 01:12:30;;;;;;;;;;;;;;;16.84;53.58;98925.94;5090783;28;19920;-37
2023/02/27 01:14:55;;;;;;;;;;;;;;;16.77;53.29;98918.91;5090868;28;20006;-38
2023/02/27 01:17:21;;;;;;;;;;;;;;;16.31;54.63;98891.06;5091203;28;19919;-37
2023/02/27 01:19:46;;;;;;;;;;;;;;;16.51;54.09;98884.97;5090432;28;19951;-37
2023/02/27 01:22:11;;;;;;;;;;;;;;;16.68;53.64;98917.78;5090338;28;19927;-37
2023/02/27 01:24:37;;;;;;;;;;;;;;;16.39;54.23;98893.22;5090720;28;19916;-37
2023/02/27 01:27:02;;;;;;;;;;;;;;;15.59;56.47;98883.38;5090535;28;19912;-38
2023/02/27 01:29:27;;;;;;;;;;;;;;;15.40;57.60;98931.22;5090278;28;19966;-38
2023/02/27 01:31:53;;;;;;;;;;;;;;;15.39;57.09;98960.94;5090376;28;20299;-37
2023/02/27 01:34:18;;;;;;;;;;;;;;;14.94;59.89;98922.72;5090287;28;20233;-38
2023/02/27 01:36:43;;;;;;;;;;;;;;;15.00;60.43;98924.41;5090365;28;20233;-38
2023/02/27 01:39:08;;;;;;;;;;;;;;;15.45;58.14;98922.41;5090599;28;19920;-38
2023/02/27 01:41:34;;;;;;;;;;;;;;;15.05;60.12;98932.47;5090283;28;20006;-37
2023/02/27 01:43:59;;;;;;;;;;;;;;;15.70;58.89;98959.34;5090939;28;19912;-38
2023/02/27 01:46:25;;;;;;;;;;;;;;;16.01;56.96;98968.47;5090603;28;19919;-38
2023/02/27 01:48:53;;;;;;;;;;;;;;;15.94;57.11;98965.19;5090860;28;20030;-38
2023/02/27 01:51:19;;;;;;;;;;;;;;;15.87;57.41;98963.78;5091074;28;19916;-38
2023/02/27 01:53:47;;;;;;;;;;;;;;;15.86;57.84;98971.03;5090937;28;20336;-38
2023/02/27 01:56:17;;;;;;;;;;;;;;;15.76;57.96;98962.91;5090891;28;19912;-38
2023/02/27 01:58:44;;;;;;;;;;;;;;;15.52;59.06;98962.41;5092003;28;19912;-38
2023/02/27 02:01:09;;;;;;;;;;;;;;;14.86;61.34;98964.16;5094941;28;19912;-37
2023/02/27 02:03:39;;;;;;;;;;;;;;;14.97;61.29;98965.09;5094674;28;20344;-38
2023/02/27 02:06:05;;;;;;;;;;;;;;;15.32;60.52;98966.50;5095082;28;19911;-38
2023/02/27 02:08:33;;;;;;;;;;;;;;;15.26;59.75;98964.84;5095076;28;19944;-38
2023/02/27 02:10:58;;;;;;;;;;;;;;;14.76;61.87;98958.69;5094716;28;19919;-37
2023/02/27 02:13:24;;;;;;;;;;;;;;;14.37;63.04;98965.91;5094841;28;19912;-38
2023/02/27 02:15:57;;;;;;;;;;;;;;;14.75;62.18;98983.84;5094614;28;19912;-37
2023/02/27 02:18:35;;;;;;;;;;;;;;;15.05;60.97;98971.84;5094785;28;19962;-37
2023/02/27 02:21:03;;;;;;;;;;;;;;;15.29;60.18;98984.97;5094289;28;19920;-37
2023/02/27 02:23:41;;;;;;;;;;;;;;;14.99;60.13;98984.38;5094679;28;19920;-37
2023/02/27 02:26:06;;;;;;;;;;;;;;;15.21;60.16;98992.41;5094400;28;19943;-37
2023/02/27 02:28:44;;;;;;;;;;;;;;;15.49;59.11;98990.53;5094583;28;20347;-37
2023/02/27 02:31:18;;;;;;;;;;;;;;;15.55;58.94;98988.69;5094172;28;19965;-37
2023/02/27 02:33:43;;;;;;;;;;;;;;;15.62;58.56;99000.84;5094472;28;19948;-37
2023/02/27 02:36:27;;;;;;;;;;;;;;;15.50;58.91;99007.41;5094237;28;20358;-37
2023/02/27 02:39:03;;;;;;;;;;;;;;;15.51;57.92;99001.81;5094163;28;19913;-37
2023/02/27 02:41:37;;;;;;;;;;;;;;;15.43;58.69;98991.53;5094105;28;19912;-37
2023/02/27 02:44:08;;;;;;;;;;;;;;;15.56;57.26;98985.78;5094141;28;19912;-37
2023/02/27 02:46:36;;;;;;;;;;;;;;;15.99;56.33;98989.38;5094119;28;19920;-37
2023/02/27 02:49:11;;;;;;;;;;;;;;;16.12;55.36;98987.31;5094155;28;19920;-38
2023/02/27 02:52:03;;;;;;;;;;;;;;;16.20;56.14;98982.28;5093922;28;19912;-37
2023/02/27 02:54:47;;;;;;;;;;;;;;;16.00;56.14;98980.25;5091982;28;19973;-37
2023/02/27 02:57:19;;;;;;;;;;;;;;;15.85;56.95;98988.19;5093919;28;19922;-37
2023/02/27 03:00:06;;;;;;;;;;;;;;;15.90;56.67;98993.59;5093713;28;19916;-37
2023/02/27 03:02:35;;;;;;;;;;;;;;;15.76;56.38;98997.75;5094106;28;19943;-37
2023/02/27 03:05:00;;;;;;;;;;;;;;;15.65;56.50;99018.31;5093883;28;20010;-37
2023/02/27 03:07:35;;;;;;;;;;;;;;;15.00;58.87;99036.94;5093802;28;19959;-37
2023/02/27 03:10:16;;;;;;;;;;;;;;;15.27;58.00;99046.88;5092998;28;20360;-37
2023/02/27 03:12:44;;;;;;;;;;;;;;;15.27;58.70;99054.94;5093494;28;19969;-36
2023/02/27 03:15:15;;;;;;;;;;;;;;;15.06;58.60;99053.88;5093374;28;19912;-37
2023/02/27 03:17:41;;;;;;;;;;;;;;;15.61;57.34;99058.25;5093472;28;20415;-37
2023/02/27 03:20:07;;;;;;;;;;;;;;;15.85;56.24;99063.31;5093263;28;19912;-37
2023/02/27 03:22:35;;;;;;;;;;;;;;;16.00;55.64;99060.75;5093090;28;20478;-37
2023/02/27 03:25:03;;;;;;;;;;;;;;;16.10;55.28;99064.59;5093370;28;20003;-37
2023/02/27 03:27:31;;;;;;;;;;;;;;;16.10;55.66;99065.41;5093506;28;19912;-36
2023/02/27 03:30:01;;;;;;;;;;;;;;;15.90;55.23;99049.16;5093387;28;19911;-37
2023/02/27 03:32:34;;;;;;;;;;;;;;;16.18;54.96;99077.53;5093170;28;19919;-37
2023/02/27 03:34:59;;;;;;;;;;;;;;;16.06;55.32;99072.34;5093513;28;20348;-38
2023/02/27 03:37:33;;;;;;;;;;;;;;;15.86;56.46;99072.16;5093069;28;19933;-37
2023/02/27 03:40:12;;;;;;;;;;;;;;;16.06;55.29;99087.66;5093058;28;20402;-37
2023/02/27 03:42:45;;;;;;;;;;;;;;;15.99;55.41;99094.03;5092417;28;19916;-37
2023/02/27 03:45:27;;;;;;;;;;;;;;;16.12;55.34;99092.78;5092890;28;19939;-37
2023/02/27 03:47:52;;;;;;;;;;;;;;;16.20;54.20;99104.94;5093161;28;20330;-37
2023/02/27 03:50:18;;;;;;;;;;;;;;;16.18;55.47;99115.94;5092889;28;19912;-37
2023/02/27 03:52:43;;;;;;;;;;;;;;;16.06;54.73;99111.78;5092609;28;20283;-37
2023/02/27 03:55:12;;;;;;;;;;;;;;;16.02;55.14;99128.41;5092815;28;19912;-37
2023/02/27 03:57:38;;;;;;;;;;;;;;;15.95;54.79;99141.19;5092891;28;19912;-37
2023/02/27 04:00:05;;;;;;;;;;;;;;;15.51;56.56;99170.72;5092863;28;19916;-37
2023/02/27 04:02:31;;;;;;;;;;;;;;;15.41;57.13;99122.34;5092491;28;20425;-37
2023/02/27 04:04:56;;;;;;;;;;;;;;;15.24;57.36;99133.94;5092809;28;20263;-37
2023/02/27 04:07:27;;;;;;;;;;;;;;;15.62;56.73;99142.19;5092747;28;20015;-36
2023/02/27 04:09:53;;;;;;;;;;;;;;;15.57;55.75;99152.84;5092481;28;20345;-37
2023/02/27 04:12:27;;;;;;;;;;;;;;;15.65;57.25;99189.97;5092379;28;19916;-37
2023/02/27 04:15:04;;;;;;;;;;;;;;;16.00;55.38;99175.34;5091933;28;19961;-36
2023/02/27 04:17:32;;;;;;;;;;;;;;;15.67;54.95;99181.63;5092768;28;19919;-38
2023/02/27 04:20:13;;;;;;;;;;;;;;;15.97;54.69;99173.97;5092263;28;19923;-36
2023/02/27 04:22:44;;;;;;;;;;;;;;;16.06;54.52;99178.88;5091332;28;19924;-37
2023/02/27 04:25:22;;;;;;;;;;;;;;;16.17;54.63;99170.69;5092236;28;20383;-37
2023/02/27 04:27:55;;;;;;;;;;;;;;;16.00;54.36;99184.19;5092202;28;20248;-37
2023/02/27 04:30:26;;;;;;;;;;;;;;;15.10;56.96;99201.53;5092034;28;20372;-37
2023/02/27 04:32:51;;;;;;;;;;;;;;;15.39;57.13;99204.91;5091983;28;19912;-37
2023/02/27 04:35:24;;;;;;;;;;;;;;;15.06;57.01;99211.97;5092287;28;20538;-37
2023/02/27 04:37:56;;;;;;;;;;;;;;;15.23;56.37;99215.44;5091861;28;19912;-37
2023/02/27 04:40:26;;;;;;;;;;;;;;;15.41;56.75;99232.28;5091928;28;19912;-36
2023/02/27 04:42:54;;;;;;;;;;;;;;;15.60;55.89;99256.94;5091980;28;19920;-37
2023/02/27 04:45:21;;;;;;;;;;;;;;;15.25;55.76;99339.28;5091617;28;19916;-37
2023/02/27 04:47:48;;;;;;;;;;;;;;;14.19;58.05;99358.50;5091690;28;19912;-36
2023/02/27 04:50:19;;;;;;;;;;;;;;;14.36;57.63;99376.50;5091442;28;19963;-38
2023/02/27 04:52:49;;;;;;;;;;;;;;;13.93;58.14;99386.56;5091596;28;19923;-36
2023/02/27 04:55:30;;;;;;;;;;;;;;;13.96;58.85;99386.09;5091916;28;19920;-36
2023/02/27 04:58:09;;;;;;;;;;;;;;;14.04;58.18;99399.09;5091875;28;19916;-36
2023/02/27 05:00:35;;;;;;;;;;;;;;;14.03;58.17;99405.53;5092599;28;19916;-36
2023/02/27 05:03:21;;;;;;;;;;;;;;;14.28;58.07;99399.09;5093122;28;19920;-36
2023/02/27 05:05:47;;;;;;;;;;;;;;;14.10;57.60;99423.31;5091319;28;19972;-36
2023/02/27 05:08:25;;;;;;;;;;;;;;;14.25;57.91;99450.41;5091453;28;19923;-36
2023/02/27 05:10:53;;;;;;;;;;;;;;;14.14;58.57;99469.94;5091348;28;20004;-37
2023/02/27 05:13:21;;;;;;;;;;;;;;;13.48;60.64;99478.84;5091218;28;19912;-37
2023/02/27 05:15:56;;;;;;;;;;;;;;;13.60;61.12;99481.53;5091121;28;19958;-37
2023/02/27 05:18:22;;;;;;;;;;;;;;;13.40;62.94;99467.66;5091064;28;20461;-37
2023/02/27 05:21:07;;;;;;;;;;;;;;;13.38;64.35;99459.84;5090354;28;19931;-37
2023/02/27 05:23:43;;;;;;;;;;;;;;;13.48;65.55;99476.16;5090269;28;19927;-35
2023/02/27 05:26:08;;;;;;;;;;;;;;;13.02;68.63;99480.28;5090763;28;19980;-38
2023/02/27 05:28:33;;;;;;;;;;;;;;;12.79;70.54;99490.84;5090869;28;20038;-35
2023/02/27 05:31:17;;;;;;;;;;;;;;;13.13;69.91;99483.22;5090900;28;19915;-37
2023/02/27 05:33:56;;;;;;;;;;;;;;;13.37;69.27;99479.63;5091255;28;19912;-37
2023/02/27 05:36:29;;;;;;;;;;;;;;;13.34;70.50;99479.25;5090876;28;20378;-37
2023/02/27 05:38:57;;;;;;;;;;;;;;;13.15;71.80;99481.13;5090622;28;20354;-37
2023/02/27 05:41:42;;;;;;;;;;;;;;;14.11;71.11;99475.75;5090611;28;19912;-36
2023/02/27 05:44:16;;;;;;;;;;;;;;;13.94;70.87;99452.41;5090690;28;20405;-37
2023/02/27 05:46:45;;;;;;;;;;;;;;;13.66;70.20;99437.03;5090695;28;19935;-37
2023/02/27 05:49:22;;;;;;;;;;;;;;;14.71;66.97;99426.47;5091738;28;19919;-45
2023/02/27 05:51:49;;;;;;;;;;;;;;;15.20;67.20;99405.41;5104031;28;20008;-37
2023/02/27 05:54:23;;;;;;;;;;;;;;;15.78;62.63;99411.44;5101642;28;19916;-37
2023/02/27 05:56:51;;;;;;;;;;;;;;;16.08;65.28;99383.41;5089275;28;20002;-37
2023/02/27 05:59:29;;;;;;;;;;;;;;;16.24;61.52;99379.88;5088986;28;20379;-44
2023/02/27 06:01:54;;;;;;;;;;;;;;;16.58;62.70;99402.03;5089434;28;19974;-42
2023/02/27 06:04:19;;;;;;;;;;;;;;;16.37;59.73;99432.38;5089637;28;19916;-42
2023/02/27 06:06:45;;;;;;;;;;;;;;;15.92;62.44;99418.09;5092538;28;20344;-44
2023/02/27 06:09:10;;;;;;;;;;;;;;;16.23;60.98;99407.78;5091442;28;20425;-44
2023/02/27 06:11:35;;;;;;;;;;;;;;;15.95;62.35;99411.41;5091322;28;19912;-43
2023/02/27 06:14:01;;;;;;;;;;;;;;;16.15;60.70;99417.06;5091191;28;19934;-42
2023/02/27 06:16:27;;;;;;;;;;;;;;;16.28;61.49;99437.38;5091251;28;19915;-44
2023/02/27 06:18:54;;;;;;;;;;;;;;;16.73;60.29;99438.19;5090036;28;19920;-44
2023/02/27 06:21:19;;;;;;;;;;;;;;;16.77;58.54;99440.13;5087160;28;19931;-42
2023/02/27 06:23:44;;;;;;;;;;;;;;;16.30;59.96;99454.06;5090383;28;19920;-43
2023/02/27 06:26:13;;;;;;;;;;;;;;;15.24;63.00;99446.75;5090064;28;19961;-43
2023/02/27 06:28:38;;;;;;;;;;;;;;;15.33;64.20;99442.63;5090390;28;19912;-42
2023/02/27 06:31:03;;;;;;;;;;;;;;;16.20;63.01;99445.84;5090317;28;19916;-44
2023/02/27 06:33:29;;;;;;;;;;;;;;;16.76;59.36;99426.94;5090038;28;20018;-44
2023/02/27 06:35:54;;;;;;;;;;;;;;;17.16;57.88;99434.66;5090092;28;20394;-44
2023/02/27 06:38:19;;;;;;;;;;;;;;;17.64;57.38;99447.44;5090380;28;20360;-44
2023/02/27 06:40:45;;;;;;;;;;;;;;;17.85;54.93;99445.75;5090029;28;20057;-44
2023/02/27 06:43:10;;;;;;;;;;;;;;;17.23;55.56;99444.38;5089866;28;20316;-44
2023/02/27 06:45:35;;;;;;;;;;;;;;;17.02;55.97;99452.25;5090805;28;19916;-45
2023/02/27 06:48:01;;;;;;;;;;;;;;;16.97;57.21;99463.75;5093530;28;20383;-44
2023/02/27 06:50:26;;;;;;;;;;;;;;;17.28;56.46;99466.75;5093463;28;19916;-43
2023/02/27 06:52:51;;;;;;;;;;;;;;;16.94;57.26;99471.50;5093534;28;19912;-43
2023/02/27 06:55:19;;;;;;;;;;;;;;;17.01;56.98;99464.06;5093415;28;19919;-45
2023/02/27 06:57:46;;;;;;;;;;;;;;;16.80;57.32;99455.75;5093495;28;20449;-43
2023/02/27 07:00:12;;;;;;;;;;;;;;;16.61;56.98;99465.19;5093621;28;19912;-45
2023/02/27 07:02:37;;;;;;;;;;;;;;;16.58;58.13;99465.69;5092476;28;19969;-43
2023/02/27 07:05:02;;;;;;;;;;;;;;;17.22;56.65;99466.97;5093268;28;19972;-43
2023/02/27 07:07:28;;;;;;;;;;;;;;;17.90;55.29;99465.44;5093236;28;19950;-43
2023/02/27 07:09:53;;;;;;;;;;;;;;;18.15;54.83;99490.91;5093150;28;20428;-45
2023/02/27 07:12:18;;;;;;;;;;;;;;;18.40;53.78;99500.22;5093182;28;19947;-44
2023/02/27 07:14:43;;;;;;;;;;;;;;;17.90;54.90;99508.50;5093005;28;20368;-42
2023/02/27 07:17:09;;;;;;;;;;;;;;;17.33;56.87;99512.53;5093178;28;20053;-43
2023/02/27 07:19:36;;;;;;;;;;;;;;;17.67;55.94;99516.88;5093178;28;20360;-43
2023/02/27 07:22:01;;;;;;;;;;;;;;;18.27;53.95;99523.03;5092774;28;19920;-43
2023/02/27 07:24:26;;;;;;;;;;;;;;;18.88;52.06;99528.75;5092692;28;19916;-43
2023/02/27 07:26:52;;;;;;;;;;;;;;;18.79;51.37;99516.84;5092899;28;20295;-43
2023/02/27 07:29:17;;;;;;;;;;;;;;;17.77;54.35;99522.34;5093023;28;19912;-42
2023/02/27 07:31:43;;;;;;;;;;;;;;;18.56;52.45;99523.44;5093037;28;19995;-43
2023/02/27 07:34:12;;;;;;;;;;;;;;;18.80;51.97;99521.19;5092781;28;20380;-42
2023/02/27 07:36:37;;;;;;;;;;;;;;;18.94;51.17;99535.81;5092707;28;19912;-41
2023/02/27 07:39:04;;;;;;;;;;;;;;;18.55;51.51;99527.25;5092569;28;19912;-43
2023/02/27 07:41:29;;;;;;;;;;;;;;;18.54;51.90;99531.00;5092206;28;19939;-43
2023/02/27 07:43:54;;;;;;;;;;;;;;;18.74;50.19;99528.41;5092339;28;19912;-42
2023/02/27 07:46:22;;;;;;;;;;;;;;;18.90;49.08;99528.50;5091913;28;19912;-41
2023/02/27 07:48:47;;;;;;;;;;;;;;;19.18;48.62;99526.44;5092013;28;19921;-42
2023/02/27 07:51:13;;;;;;;;;;;;;;;19.34;48.69;99533.50;5092496;28;19912;-41
2023/02/27 07:53:38;;;;;;;;;;;;;;;19.08;49.38;99541.53;5092171;28;20131;-42
2023/02/27 07:56:03;;;;;;;;;;;;;;;19.71;47.53;99540.59;5092446;28;19916;-41
2023/02/27 07:58:28;;;;;;;;;;;;;;;20.06;46.45;99547.88;5092555;28;19916;-43
2023/02/27 08:00:54;;;;;;;;;;;;;;;20.44;44.94;99540.28;5092505;28;19990;-42
2023/02/27 08:03:19;;;;;;;;;;;;;;;19.83;45.86;99546.53;5092110;28;19971;-43
2023/02/27 08:05:44;;;;;;;;;;;;;;;19.71;46.15;99554.06;5092526;28;19968;-41
2023/02/27 08:08:10;;;;;;;;;;;;;;;19.94;46.03;99541.16;5092117;28;20387;-41
2023/02/27 08:10:35;;;;;;;;;;;;;;;19.88;46.07;99545.75;5092183;28;20407;-42
2023/02/27 08:13:00;;;;;;;;;;;;;;;19.52;46.65;99553.78;5092126;28;19954;-42
2023/02/27 08:15:25;;;;;;;;;;;;;;;19.31;46.54;99559.13;5091952;28;20248;-42
2023/02/27 08:17:51;;;;;;;;;;;;;;;19.44;46.17;99556.97;5092151;28;19912;-42
2023/02/27 08:20:16;;;;;;;;;;;;;;;19.58;46.45;99547.31;5091404;28;19912;-42
2023/02/27 08:22:41;;;;;;;;;;;;;;;18.92;46.17;99556.84;5092118;28;20034;-41
2023/02/27 08:25:09;;;;;;;;;;;;;;;18.60;47.17;99558.78;5091882;28;19913;-43
2023/02/27 08:27:35;;;;;;;;;;;;;;;18.70;47.41;99567.75;5092349;28;20426;-41
2023/02/27 08:30:01;;;;;;;;;;;;;;;18.33;48.55;99562.38;5091966;28;19912;-43
2023/02/27 08:32:26;;;;;;;;;;;;;;;18.81;47.44;99565.94;5091836;28;19962;-42
2023/02/27 08:34:51;;;;;;;;;;;;;;;19.22;46.89;99566.09;5091869;28;20010;-44
2023/02/27 08:37:17;;;;;;;;;;;;;;;19.66;45.21;99572.97;5091449;28;19912;-41
2023/02/27 08:39:42;;;;;;;;;;;;;;;20.00;45.13;99567.09;5091092;28;20391;-42
2023/02/27 08:42:07;;;;;;;;;;;;;;;20.38;43.53;99567.59;5091555;28;19916;-41
2023/02/27 08:44:33;;;;;;;;;;;;;;;20.23;44.32;99571.94;5091236;28;20356;-43
2023/02/27 08:46:58;;;;;;;;;;;;;;;20.96;43.68;99578.84;5091480;28;20015;-42
2023/02/27 08:49:24;;;;;;;;;;;;;;;21.54;40.99;99572.09;5091218;28;19916;-41
2023/02/27 08:51:50;;;;;;;;;;;;;;;21.80;40.26;99572.72;5091192;28;19919;-41
2023/02/27 08:54:15;;;;;;;;;;;;;;;22.02;40.54;99580.41;5091086;28;19916;-41
2023/02/27 08:56:40;;;;;;;;;;;;;;;21.94;40.74;99573.72;5091123;28;19920;-41
2023/02/27 08:59:06;;;;;;;;;;;;;;;22.18;40.04;99583.78;5091079;28;19912;-42
2023/02/27 09:01:33;;;;;;;;;;;;;;;21.60;41.34;99587.22;5091137;28;19916;-42
2023/02/27 09:03:59;;;;;;;;;;;;;;;21.98;39.84;99584.78;5090858;28;20008;-42
2023/02/27 09:06:24;;;;;;;;;;;;;;;21.51;41.15;99597.81;5091248;28;19916;-42
2023/02/27 09:08:50;;;;;;;;;;;;;;;21.71;41.16;99593.38;5090334;28;19916;-41
2023/02/27 09:11:15;;;;;;;;;;;;;;;21.81;39.75;99596.81;5090384;28;19923;-41
2023/02/27 09:13:40;;;;;;;;;;;;;;;22.15;39.66;99601.44;5090483;28;20399;-41
2023/02/27 09:16:05;;;;;;;;;;;;;;;22.68;38.29;99606.16;5090426;28;19919;-41
2023/02/27 09:18:31;;;;;;;;;;;;;;;23.01;38.79;99600.91;5090027;28;19916;-40
2023/02/27 09:20:56;;;;;;;;;;;;;;;22.75;38.90;99594.94;5090595;28;20027;-41
2023/02/27 09:23:21;;;;;;;;;;;;;;;22.88;37.88;99596.97;5090387;28;19920;-41
2023/02/27 09:25:47;;;;;;;;;;;;;;;23.52;37.21;99603.00;5090677;28;19924;-42
2023/02/27 09:28:12;;;;;;;;;;;;;;;23.74;35.93;99604.31;5088016;28;20074;-41
2023/02/27 09:30:37;;;;;;;;;;;;;;;23.42;35.82;99603.13;5090626;28;19912;-41
2023/02/27 09:33:03;;;;;;;;;;;;;;;23.51;35.86;99592.41;5090265;28;20003;-41
2023/02/27 09:35:28;;;;;;;;;;;;;;;23.69;35.79;99596.25;5090228;28;20339;-41
2023/02/27 09:37:55;;;;;;;;;;;;;;;23.25;36.49;99600.09;5090540;28;20019;-41
2023/02/27 09:40:21;;;;;;;;;;;;;;;23.03;36.47;99591.38;5090462;28;19916;-41
2023/02/27 09:42:47;;;;;;;;;;;;;;;23.44;35.99;99598.22;5090240;28;19973;-40
2023/02/27 09:45:17;;;;;;;;;;;;;;;23.77;35.11;99595.56;5089906;28;19990;-41
2023/02/27 09:47:49;;;;;;;;;;;;;;;22.72;36.80;99595.53;5090332;28;19962;-40
2023/02/27 09:50:36;;;;;;;;;;;;;;;22.37;37.75;99595.59;5088327;28;19972;-41
2023/02/27 09:53:03;;;;;;;;;;;;;;;22.03;38.47;99593.69;5089122;28;20240;-42
2023/02/27 09:55:34;;;;;;;;;;;;;;;21.39;39.58;99579.19;5090252;28;20288;-42
2023/02/27 09:58:19;;;;;;;;;;;;;;;21.22;40.00;99603.88;5090778;28;20347;-42
2023/02/27 10:00:45;;;;;;;;;;;;;;;21.42;40.25;99604.91;5088644;28;19981;-42
2023/02/27 10:03:28;;;;;;;;;;;;;;;21.92;39.01;99599.47;5090475;28;20388;-42
2023/02/27 10:05:54;;;;;;;;;;;;;;;22.62;37.28;99593.75;5090279;28;19932;-42
2023/02/27 10:08:28;;;;;;;;;;;;;;;22.90;36.63;99589.34;5089812;28;19920;-42
2023/02/27 10:10:59;;;;;;;;;;;;;;;22.48;36.49;99590.88;5091166;28;19912;-42
2023/02/27 10:13:43;;;;;;;;;;;;;;;22.54;36.69;99583.50;5088784;28;20300;-42
2023/02/27 10:16:13;;;;;;;;;;;;;;;22.68;36.79;99578.22;5090450;28;19912;-42
2023/02/27 10:18:51;;;;;;;;;;;;;;;22.70;37.03;99573.31;5090319;28;19937;-41
2023/02/27 10:21:24;;;;;;;;;;;;;;;22.27;37.87;99578.63;5091769;28;19924;-41
2023/02/27 10:24:22;;;;;;;;;;;;;;;22.41;37.04;99582.28;5094199;28;19931;-42
2023/02/27 10:26:51;;;;;;;;;;;;;;;21.89;37.86;99584.56;5071194;28;20303;-42
2023/02/27 10:29:23;;;;;;;;;;;;;;;22.15;36.77;99576.25;5093633;28;19912;-43
2023/02/27 10:31:54;;;;;;;;;;;;;;;21.80;37.63;99581.66;5093484;28;19919;-41
2023/02/27 10:34:21;;;;;;;;;;;;;;;22.20;36.35;99576.19;5093347;28;19923;-42
2023/02/27 10:36:47;;;;;;;;;;;;;;;21.91;37.30;99584.28;5093330;28;19935;-41
2023/02/27 10:39:14;;;;;;;;;;;;;;;21.97;37.65;99577.75;5093381;28;20383;-41
2023/02/27 10:41:41;;;;;;;;;;;;;;;22.30;37.02;99561.78;5093398;28;19916;-41
2023/02/27 10:44:06;;;;;;;;;;;;;;;22.62;36.60;99556.56;5093582;28;20364;-42
2023/02/27 10:46:34;;;;;;;;;;;;;;;22.86;35.94;99550.34;5093477;28;19913;-40
2023/02/27 10:49:00;;;;;;;;;;;;;;;23.24;35.35;99561.28;5093334;28;19908;-42
2023/02/27 10:51:25;;;;;;;;;;;;;;;23.10;34.34;99549.53;5093391;28;20320;-42
2023/02/27 10:54:11;;;;;;;;;;;;;;;22.68;35.68;99548.41;5093610;28;19920;-42
2023/02/27 10:56:38;;;;;;;;;;;;;;;22.32;36.75;99557.69;5093602;28;19918;-41
2023/02/27 10:59:15;;;;;;;;;;;;;;;22.36;37.18;99544.38;5093339;28;19912;-41
2023/02/27 11:01:46;;;;;;;;;;;;;;;22.58;36.72;99536.56;5093256;28;19952;-43
2023/02/27 11:04:11;;;;;;;;;;;;;;;22.79;36.19;99537.13;5093031;28;19957;-42
2023/02/27 11:06:37;;;;;;;;;;;;;;;23.19;35.98;99545.88;5093086;28;19939;-42
2023/02/27 11:09:08;;;;;;;;;;;;;;;23.26;35.33;99534.66;5092773;28;19912;-42
2023/02/27 11:11:33;;;;;;;;;;;;;;;23.03;35.78;99520.03;5092531;28;19916;-41
2023/02/27 11:14:13;;;;;;;;;;;;;;;23.25;35.81;99521.38;5092624;28;19985;-41
2023/02/27 11:16:49;;;;;;;;;;;;;;;23.40;35.38;99530.13;5092940;28;19912;-42
2023/02/27 11:19:30;;;;;;;;;;;;;;;23.20;35.56;99530.41;5092595;28;19916;-41
2023/02/27 11:22:03;;;;;;;;;;;;;;;22.75;36.10;99527.13;5092499;28;20378;-42
2023/02/27 11:24:28;;;;;;;;;;;;;;;23.10;35.83;99520.50;5092788;28;19934;-43
2023/02/27 11:26:56;;;;;;;;;;;;;;;22.84;36.09;99518.06;5092640;28;20394;-41
2023/02/27 11:29:21;;;;;;;;;;;;;;;22.80;36.08;99514.31;5093139;28;19916;-41
2023/02/27 11:31:49;;;;;;;;;;;;;;;22.31;36.46;99501.84;5092269;28;19969;-41
2023/02/27 11:34:24;;;;;;;;;;;;;;;22.00;37.08;99502.13;5092598;28;20379;-41
2023/02/27 11:36:51;;;;;;;;;;;;;;;22.69;36.05;99509.31;5092665;28;19928;-42
2023/02/27 11:39:22;;;;;;;;;;;;;;;23.08;35.46;99511.84;5092360;28;19912;-42
2023/02/27 11:41:48;;;;;;;;;;;;;;;23.05;35.72;99509.69;5092215;28;19920;-41
2023/02/27 11:44:16;;;;;;;;;;;;;;;23.37;35.08;99508.97;5092808;28;19912;-42
2023/02/27 11:46:42;;;;;;;;;;;;;;;23.65;34.96;99509.13;5092786;28;19952;-42
2023/02/27 11:49:39;;;;;;;;;;;;;;;23.63;34.35;99508.59;5092657;28;19962;-42
2023/02/27 11:52:10;;;;;;;;;;;;;;;22.96;35.45;99514.13;5079727;28;19923;-42
2023/02/27 11:54:41;;;;;;;;;;;;;;;22.59;36.13;99519.19;5092293;28;19912;-42
2023/02/27 11:57:09;;;;;;;;;;;;;;;22.92;35.64;99521.22;5091804;28;20239;-41
2023/02/27 11:59:41;;;;;;;;;;;;;;;23.02;35.40;99516.50;5092098;28;20209;-41
2023/02/27 12:02:10;;;;;;;;;;;;;;;23.00;35.60;99515.19;5091984;28;19923;-42
2023/02/27 12:04:41;;;;;;;;;;;;;;;23.79;34.50;99509.97;5091983;28;19916;-42
2023/02/27 12:07:15;;;;;;;;;;;;;;;24.44;33.54;99500.13;5091969;28;20364;-42
2023/02/27 12:09:43;;;;;;;;;;;;;;;24.66;32.99;99499.47;5091860;28;20085;-42
2023/02/27 12:12:21;;;;;;;;;;;;;;;24.37;33.42;99497.03;5091723;28;19912;-42
2023/02/27 12:14:54;;;;;;;;;;;;;;;24.03;34.03;99498.19;5091770;28;19920;-41
2023/02/27 12:17:19;;;;;;;;;;;;;;;23.82;33.92;99503.16;5091493;28;19961;-41
2023/02/27 12:19:47;;;;;;;;;;;;;;;24.14;33.71;99504.22;5091471;28;19912;-41
2023/02/27 12:22:19;;;;;;;;;;;;;;;23.18;35.12;99508.19;5090044;28;19936;-43
2023/02/27 12:25:05;;;;;;;;;;;;;;;23.64;34.73;99509.41;5091258;28;19922;-43
2023/02/27 12:27:43;;;;;;;;;;;;;;;24.30;33.54;99513.72;5091165;28;19962;-43
2023/02/27 12:30:20;;;;;;;;;;;;;;;23.84;33.74;99508.28;5091497;28;20303;-43
2023/02/27 12:33:04;;;;;;;;;;;;;;;23.08;35.21;99503.69;5091075;28;20336;-43
2023/02/27 12:35:31;;;;;;;;;;;;;;;23.47;34.61;99512.66;5091407;28;19912;-41
2023/02/27 12:37:57;;;;;;;;;;;;;;;23.40;34.30;99508.41;5091717;28;19923;-42
2023/02/27 12:40:28;;;;;;;;;;;;;;;23.09;34.90;99508.00;5091268;28;19956;-42
2023/02/27 12:42:53;;;;;;;;;;;;;;;23.51;34.86;99505.53;5090565;28;19916;-43
2023/02/27 12:45:18;;;;;;;;;;;;;;;23.83;34.06;99499.34;5091080;28;20437;-43
2023/02/27 12:47:50;;;;;;;;;;;;;;;23.59;34.38;99494.00;5091272;28;19916;-43
2023/02/27 12:50:20;;;;;;;;;;;;;;;24.44;33.14;99491.97;5091073;28;20018;-42
2023/02/27 12:52:51;;;;;;;;;;;;;;;24.59;32.81;99496.34;5091144;28;19916;-42
2023/02/27 12:55:18;;;;;;;;;;;;;;;24.98;32.24;99489.56;5091323;28;20010;-42
2023/02/27 12:57:46;;;;;;;;;;;;;;;24.97;31.82;99493.38;5090965;28;19912;-42